Time;durP1;ratioP1;P1;durP2;ratioP2;P2;SDS_P1;SDS_P2;PMS_P1;PMS_P2;Temp;Humidity;BMP_temperature;BMP_pressure;BME280_temperature;BME280_humidity;BME280_pressure;Samples;Min_cycle;Max_cycle;Signal;HPM_P1;HPM_P2
2022/01/11 00:00:57;;;;;;;3.15;2.13;;;;;;;-145.06;0.00;60892.56;4862345;28;20561;-87
2022/01/11 00:03:38;;;;;;;2.85;2.15;;;;;;;-145.06;0.00;60892.56;4852082;28;20037;-87
2022/01/11 00:06:42;;;;;;;4.50;2.70;;;;;;;-145.06;0.00;60892.56;4858128;28;20018;-87
2022/01/11 00:09:30;;;;;;;2.90;1.98;;;;;;;-145.06;0.00;60892.56;4855349;28;20030;-87
2022/01/11 00:12:10;;;;;;;3.40;2.10;;;;;;;-145.06;0.00;60892.56;4856774;28;20025;-86
2022/01/11 00:14:49;;;;;;;3.42;2.60;;;;;;;2.80;0.00;60892.56;4854533;28;20060;-86
2022/01/11 00:17:28;;;;;;;3.25;2.47;;;;;;;-145.06;0.00;60892.56;4871749;28;20116;-87
2022/01/11 00:20:08;;;;;;;2.97;2.40;;;;;;;187.52;0.00;60892.56;4855765;28;20619;-87
2022/01/11 00:25:45;;;;;;;3.28;2.40;;;;;;;-145.06;0.00;60892.56;4857114;28;20029;-88
2022/01/11 00:28:25;;;;;;;3.33;2.40;;;;;;;-145.06;0.00;60892.56;4855111;28;20108;-88
2022/01/11 00:31:07;;;;;;;4.05;2.55;;;;;;;-145.06;0.00;60892.56;4871344;28;20041;-86
2022/01/11 00:33:47;;;;;;;3.95;2.58;;;;;;;0.49;0.00;60892.56;4856855;28;20486;-86
2022/01/11 00:36:39;;;;;;;3.30;2.10;;;;;;;-145.06;0.00;60892.56;4856213;28;20025;-86
2022/01/11 00:39:19;;;;;;;4.28;2.63;;;;;;;-145.06;0.00;60892.56;4855698;28;20109;-87
2022/01/11 00:41:58;;;;;;;3.67;2.67;;;;;;;-145.06;0.00;60892.56;4855335;28;20045;-87
2022/01/11 00:44:38;;;;;;;3.72;2.55;;;;;;;-145.06;0.00;60892.56;4870338;28;20036;-87
2022/01/11 00:47:18;;;;;;;3.17;2.08;;;;;;;-145.06;0.00;60892.56;4856342;28;20033;-88
2022/01/11 00:49:57;;;;;;;;;;;;;;;-145.06;0.00;60892.56;4858769;28;20037;-87
2022/01/11 00:52:36;;;;;;;3.40;2.15;;;;;;;-145.06;0.00;60892.56;4860715;28;20251;-88
2022/01/11 00:55:15;;;;;;;3.63;2.27;;;;;;;-145.06;0.00;60892.56;4868914;28;20045;-88
2022/01/11 00:57:54;;;;;;;4.18;2.33;;;;;;;187.52;0.00;60892.56;4864217;28;20033;-87
2022/01/11 01:00:35;;;;;;;3.50;2.25;;;;;;;-145.06;0.00;60892.56;4856304;28;20691;-88
2022/01/11 01:03:16;;;;;;;4.00;2.63;;;;;;;0.29;0.00;60892.56;4861639;28;20056;-88
2022/01/11 01:05:55;;;;;;;3.22;2.38;;;;;;;0.26;0.00;60892.56;4856441;28;20033;-88
2022/01/11 01:08:34;;;;;;;4.07;2.80;;;;;;;187.52;0.00;60892.56;4856156;28;20033;-88
2022/01/11 01:11:13;;;;;;;4.23;2.67;;;;;;;-145.06;0.00;60892.56;4868943;28;20033;-87
2022/01/11 01:13:52;;;;;;;4.13;2.25;;;;;;;21.08;0.00;60892.56;4856833;28;20388;-88
2022/01/11 01:16:31;;;;;;;3.43;2.23;;;;;;;0.18;0.00;60892.56;4870285;28;20120;-87
2022/01/11 01:19:10;;;;;;;3.50;2.45;;;;;;;0.17;0.00;60892.56;4854576;28;20033;-87
2022/01/11 01:21:49;;;;;;;3.55;2.50;;;;;;;0.16;0.00;60892.56;4853849;28;20045;-88
2022/01/11 01:24:28;;;;;;;3.58;2.58;;;;;;;-145.06;0.00;60892.56;4860071;28;20032;-88
2022/01/11 01:27:07;;;;;;;4.13;2.53;;;;;;;0.29;0.00;60892.56;4858090;28;20033;-87
2022/01/11 01:29:46;;;;;;;3.80;2.37;;;;;;;-145.06;0.00;60892.56;4855200;28;20467;-88
2022/01/11 01:32:25;;;;;;;3.13;2.30;;;;;;;21.08;0.00;60892.56;4871699;28;20442;-87
2022/01/11 01:35:05;;;;;;;3.67;2.28;;;;;;;0.11;0.00;60892.56;4856708;28;20038;-86
2022/01/11 01:37:44;;;;;;;2.70;1.95;;;;;;;0.11;0.00;60892.56;4851040;28;20030;-87
2022/01/11 01:40:23;;;;;;;3.43;1.97;;;;;;;21.08;0.00;60892.56;4848265;28;20482;-87
2022/01/11 01:43:05;;;;;;;3.70;2.42;;;;;;;0.11;0.00;60892.56;4857765;28;20041;-88
2022/01/11 01:45:44;;;;;;;3.13;2.00;;;;;;;-145.06;0.00;60892.56;4852070;28;20033;-88
2022/01/11 01:48:24;;;;;;;3.53;2.03;;;;;;;0.29;0.00;60892.56;4867623;28;20622;-86
2022/01/11 01:51:05;;;;;;;4.15;2.25;;;;;;;21.08;0.00;60892.56;4856444;28;20368;-87
2022/01/11 01:53:47;;;;;;;4.10;1.98;;;;;;;-145.06;0.00;60892.56;4854298;28;20041;-87
2022/01/11 01:56:27;;;;;;;3.60;2.00;;;;;;;0.29;0.00;60892.56;4854551;28;20033;-87
2022/01/11 01:59:06;;;;;;;4.00;1.95;;;;;;;0.13;0.00;60892.56;4848487;28;20033;-87
2022/01/11 02:01:48;;;;;;;1.88;1.63;;;;;;;-145.06;0.00;60892.56;4853642;28;20069;-88
2022/01/11 02:04:26;;;;;;;3.03;2.30;;;;;;;-145.06;0.00;60892.56;4858703;28;20360;-87
2022/01/11 02:07:06;;;;;;;3.05;2.05;;;;;;;-145.06;0.00;60892.56;4853745;28;20029;-86
2022/01/11 02:09:44;;;;;;;2.65;2.00;;;;;;;-145.06;0.00;60892.56;4854116;28;20037;-88
2022/01/11 02:12:24;;;;;;;3.92;2.47;;;;;;;-145.06;0.00;60892.56;4855020;28;20033;-86
2022/01/11 02:15:04;;;;;;;3.15;1.98;;;;;;;0.10;0.00;60892.56;4855528;28;20037;-87
2022/01/11 02:17:45;;;;;;;2.58;1.75;;;;;;;-145.06;0.00;60892.56;4867911;28;20766;-89
2022/01/11 02:20:24;;;;;;;3.17;2.17;;;;;;;0.11;0.00;60892.56;4863045;28;20029;-88
2022/01/11 02:23:03;;;;;;;4.20;2.47;;;;;;;0.12;0.00;60892.56;4855687;28;20176;-87
2022/01/11 02:25:43;;;;;;;2.60;2.00;;;;;;;0.13;0.00;60892.56;4854792;28;20037;-87
2022/01/11 02:28:24;;;;;;;4.18;2.00;;;;;;;-145.06;0.00;60892.56;4856674;28;20033;-87
2022/01/11 02:31:07;;;;;;;2.90;1.92;;;;;;;0.29;0.00;60892.56;4847564;28;20041;-87
2022/01/11 02:33:49;;;;;;;2.63;2.10;;;;;;;-145.06;0.00;60892.56;4868982;28;20033;-86
2022/01/11 02:36:30;;;;;;;3.17;2.22;;;;;;;-145.06;0.00;60892.56;4852546;28;20119;-88
2022/01/11 02:39:09;;;;;;;4.05;2.55;;;;;;;0.11;0.00;60892.56;4868565;28;20038;-87
2022/01/11 02:41:52;;;;;;;2.58;1.95;;;;;;;-145.06;0.00;60892.56;4869436;28;20116;-87
2022/01/11 02:44:32;;;;;;;2.60;2.08;;;;;;;-145.06;0.00;60892.56;4847924;28;20033;-88
2022/01/11 02:47:10;;;;;;;2.83;2.20;;;;;;;-145.06;0.00;60892.56;4854597;28;20065;-86
2022/01/11 02:49:49;;;;;;;2.93;1.93;;;;;;;-145.06;0.00;60892.56;4854126;28;20049;-87
2022/01/11 02:52:28;;;;;;;2.80;1.90;;;;;;;-145.06;0.00;60892.56;4871814;28;20059;-88
2022/01/11 02:55:10;;;;;;;2.40;1.90;;;;;;;-145.06;0.00;60892.56;4855222;28;20112;-89
2022/01/11 02:57:49;;;;;;;3.28;1.90;;;;;;;-145.06;0.00;60892.56;4851813;28;20033;-87
2022/01/11 03:00:28;;;;;;;4.00;2.28;;;;;;;-145.06;0.00;60892.56;4855713;28;20028;-88
2022/01/11 03:03:17;;;;;;;2.78;1.98;;;;;;;-145.06;0.00;60892.56;4866758;28;20034;-87
2022/01/11 03:06:02;;;;;;;3.25;2.10;;;;;;;-145.06;0.00;60892.56;4855704;28;20037;-87
2022/01/11 03:08:44;;;;;;;3.53;2.17;;;;;;;-145.06;0.00;60892.56;4848839;28;20025;-87
2022/01/11 03:11:25;;;;;;;3.10;2.05;;;;;;;-145.06;0.00;60892.56;4855763;28;20037;-88
2022/01/11 03:14:04;;;;;;;2.55;1.95;;;;;;;-145.06;0.00;60892.56;4873345;28;20119;-89
2022/01/11 03:16:43;;;;;;;3.67;2.23;;;;;;;-145.06;0.00;60892.56;4859482;28;20112;-87
2022/01/11 03:19:22;;;;;;;3.72;2.33;;;;;;;-145.06;0.00;60892.56;4853262;28;20288;-88
2022/01/11 03:22:01;;;;;;;2.55;2.13;;;;;;;-145.06;0.00;60892.56;4852739;28;20033;-88
2022/01/11 03:24:40;;;;;;;2.90;1.92;;;;;;;-145.06;0.00;60892.56;4851172;28;20120;-88
2022/01/11 03:27:20;;;;;;;2.78;1.90;;;;;;;-145.06;0.00;60892.56;4856036;28;20037;-88
2022/01/11 03:29:59;;;;;;;2.92;2.20;;;;;;;-145.06;0.00;60892.56;4850714;28;20041;-87
2022/01/11 03:32:38;;;;;;;3.33;2.10;;;;;;;-145.06;0.00;60892.56;4858976;28;20028;-87
2022/01/11 03:35:18;;;;;;;3.08;2.40;;;;;;;-145.06;0.00;60892.56;4867965;28;21119;-87
2022/01/11 03:41:33;;;;;;;3.05;2.03;;;;;;;-0.13;0.00;60892.56;4822464;28;20022;-88
2022/01/11 03:44:12;;;;;;;3.05;2.30;;;;;;;-145.06;0.00;60892.56;4845504;28;20550;-87
2022/01/11 03:46:51;;;;;;;3.15;2.17;;;;;;;-145.06;0.00;60892.56;4852522;28;20037;-88
2022/01/11 03:49:31;;;;;;;2.83;1.77;;;;;;;-145.06;0.00;60892.56;4862435;28;20077;-87
2022/01/11 03:52:11;;;;;;;4.03;2.53;;;;;;;-145.06;0.00;60892.56;4875345;28;20042;-87
2022/01/11 03:57:33;;;;;;;3.13;2.08;;;;;;;-145.06;0.00;60892.56;4855797;28;20383;-87
2022/01/11 04:00:16;;;;;;;3.47;2.08;;;;;;;-145.06;0.00;60892.56;4853894;28;20069;-88
2022/01/11 04:06:31;;;;;;;2.53;1.90;;;;;;;-145.06;0.00;60892.56;4843752;28;20029;-87
2022/01/11 04:09:11;;;;;;;3.33;2.27;;;;;;;-145.06;0.00;60892.56;4851438;28;20483;-87
2022/01/11 04:11:50;;;;;;;3.77;1.90;;;;;;;-145.06;0.00;60892.56;4853159;28;20645;-87
2022/01/11 04:14:29;;;;;;;3.20;2.20;;;;;;;-145.06;0.00;60892.56;4852765;28;20034;-87
2022/01/11 04:17:08;;;;;;;4.07;2.17;;;;;;;-145.06;0.00;60892.56;4855892;28;20049;-87
2022/01/11 04:19:47;;;;;;;3.53;2.40;;;;;;;-145.06;0.00;60892.56;4852471;28;20563;-86
2022/01/11 04:22:26;;;;;;;3.50;2.20;;;;;;;-145.06;0.00;60892.56;4853881;28;20364;-88
2022/01/11 04:25:05;;;;;;;2.83;1.88;;;;;;;-145.06;0.00;60892.56;4844478;28;20037;-87
2022/01/11 04:27:44;;;;;;;2.63;2.10;;;;;;;-145.06;0.00;60892.56;4848603;28;20025;-87
2022/01/11 04:30:23;;;;;;;3.97;2.38;;;;;;;-145.06;0.00;60892.56;4852710;28;20037;-88
2022/01/11 04:33:02;;;;;;;4.07;2.30;;;;;;;-145.06;0.00;60892.56;4849947;28;20038;-86
2022/01/11 04:35:44;;;;;;;2.95;2.25;;;;;;;-145.06;0.00;60892.56;4851272;28;20356;-86
2022/01/11 04:38:26;;;;;;;2.83;2.00;;;;;;;-145.06;0.00;60892.56;4858299;28;20036;-86
2022/01/11 04:41:06;;;;;;;3.63;2.30;;;;;;;-145.06;0.00;60892.56;4859284;28;20033;-87
2022/01/11 04:43:45;;;;;;;3.65;2.22;;;;;;;-145.06;0.00;60892.56;4863061;28;20029;-87
2022/01/11 04:46:26;;;;;;;3.67;2.13;;;;;;;-145.06;0.00;60892.56;4859251;28;20033;-87
2022/01/11 04:49:05;;;;;;;3.42;2.15;;;;;;;-145.06;0.00;60892.56;4865529;28;20642;-86
2022/01/11 04:51:46;;;;;;;3.80;2.80;;;;;;;-145.06;0.00;60892.56;4854917;28;20029;-86
2022/01/11 04:54:25;;;;;;;3.60;2.40;;;;;;;-145.06;0.00;60892.56;4853786;28;20037;-88
2022/01/11 04:57:04;;;;;;;3.05;1.95;;;;;;;-145.06;0.00;60892.56;4861980;28;20491;-87
2022/01/11 04:59:43;;;;;;;3.50;2.50;;;;;;;-145.06;0.00;60892.56;4857271;28;20550;-88
2022/01/11 05:02:22;;;;;;;2.92;2.25;;;;;;;-145.06;0.00;60892.56;4872929;28;20372;-87
2022/01/11 05:05:01;;;;;;;3.55;2.35;;;;;;;-145.06;0.00;60892.56;4867419;28;20025;-86
2022/01/11 05:07:45;;;;;;;3.22;2.40;;;;;;;-145.06;0.00;60892.56;4868630;28;20021;-88
2022/01/11 05:10:24;;;;;;;3.25;2.00;;;;;;;-145.06;0.00;60892.56;4849916;28;20360;-87
2022/01/11 05:13:03;;;;;;;4.68;2.55;;;;;;;-145.06;0.00;60892.56;4856283;28;20038;-87
2022/01/11 05:15:43;;;;;;;3.40;2.38;;;;;;;-145.06;0.00;60892.56;4849717;28;20033;-87
2022/01/11 05:18:21;;;;;;;3.15;2.38;;;;;;;-145.06;0.00;60892.56;4881148;28;20117;-88
2022/01/11 05:21:00;;;;;;;3.97;2.75;;;;;;;-145.06;0.00;60892.56;4864357;28;20519;-87
2022/01/11 05:23:39;;;;;;;4.93;3.00;;;;;;;-145.06;0.00;60892.56;4857330;28;20037;-88
2022/01/11 05:26:18;;;;;;;3.78;2.85;;;;;;;-145.06;0.00;60892.56;4861914;28;20025;-86
2022/01/11 05:28:58;;;;;;;3.90;2.13;;;;;;;-145.06;0.00;60892.56;4869662;28;20364;-86
2022/01/11 05:31:37;;;;;;;4.70;2.80;;;;;;;-145.06;0.00;60892.56;4869069;28;20037;-87
2022/01/11 05:34:16;;;;;;;4.15;2.95;;;;;;;-145.06;0.00;60892.56;4872334;28;20033;-87
2022/01/11 05:36:55;;;;;;;3.55;2.67;;;;;;;-145.06;0.00;60892.56;4855766;28;20076;-87
2022/01/11 05:39:36;;;;;;;3.63;2.67;;;;;;;-145.06;0.00;60892.56;4854933;28;20026;-88
2022/01/11 05:42:15;;;;;;;3.77;2.43;;;;;;;-145.06;0.00;60892.56;4853375;28;20068;-86
2022/01/11 05:44:54;;;;;;;3.42;2.50;;;;;;;-145.06;0.00;60892.56;4855433;28;20029;-87
2022/01/11 05:47:34;;;;;;;3.70;2.65;;;;;;;-145.06;0.00;60892.56;4854686;28;20064;-88
2022/01/11 05:50:13;;;;;;;3.53;2.42;;;;;;;-145.06;0.00;60892.56;4854193;28;20647;-86
2022/01/11 05:52:52;;;;;;;4.57;2.78;;;;;;;-145.06;0.00;60892.56;4854465;28;20065;-88
2022/01/11 05:55:31;;;;;;;2.88;2.13;;;;;;;-145.06;0.00;60892.56;4862616;28;20033;-87
2022/01/11 05:58:10;;;;;;;3.90;2.40;;;;;;;-145.06;0.00;60892.56;4851369;28;20050;-87
2022/01/11 06:00:49;;;;;;;4.80;2.72;;;;;;;-145.06;0.00;60892.56;4854525;28;20037;-87
2022/01/11 06:03:28;;;;;;;5.20;2.80;;;;;;;-145.06;0.00;60892.56;4850903;28;20026;-88
2022/01/11 06:06:07;;;;;;;4.78;2.97;;;;;;;-145.06;0.00;60892.56;4849437;28;20038;-86
2022/01/11 06:08:48;;;;;;;6.13;3.35;;;;;;;-145.06;0.00;60892.56;4853337;28;20057;-88
2022/01/11 06:11:27;;;;;;;5.63;3.20;;;;;;;-145.06;0.00;60892.56;4854648;28;20041;-88
2022/01/11 06:14:06;;;;;;;5.40;3.23;;;;;;;-145.06;0.00;60892.56;4852004;28;20057;-87
2022/01/11 06:16:46;;;;;;;4.22;2.95;;;;;;;-145.06;0.00;60892.56;4851419;28;20264;-89
2022/01/11 06:19:26;;;;;;;4.05;2.83;;;;;;;-145.06;0.00;60892.56;4849636;28;20647;-87
2022/01/11 06:22:05;;;;;;;5.07;3.17;;;;;;;-145.06;0.00;60892.56;4852060;28;20037;-87
2022/01/11 06:24:43;;;;;;;6.90;3.50;;;;;;;-145.06;0.00;60892.56;4854901;28;20068;-88
2022/01/11 06:27:22;;;;;;;6.63;3.10;;;;;;;-145.06;0.00;60892.56;4854611;28;20483;-87
2022/01/11 06:30:02;;;;;;;5.53;3.17;;;;;;;-145.06;0.00;60892.56;4862870;28;20450;-87
2022/01/11 06:32:43;;;;;;;5.53;3.70;;;;;;;-145.06;0.00;60892.56;4852711;28;20056;-88
2022/01/11 06:35:24;;;;;;;6.97;3.90;;;;;;;-145.06;0.00;60892.56;4854617;28;20573;-88
2022/01/11 06:38:03;;;;;;;6.33;4.00;;;;;;;-145.06;0.00;60892.56;4850337;28;20380;-88
2022/01/11 06:40:42;;;;;;;6.93;3.97;;;;;;;-145.06;0.00;60892.56;4851479;28;20033;-87
2022/01/11 06:43:21;;;;;;;6.93;3.90;;;;;;;-145.06;0.00;60892.56;4861179;28;20041;-87
2022/01/11 06:46:00;;;;;;;6.43;4.00;;;;;;;-145.06;0.00;60892.56;4850232;28;20388;-86
2022/01/11 06:48:39;;;;;;;6.72;3.85;;;;;;;-145.06;0.00;60892.56;4849461;28;20037;-87
2022/01/11 06:51:19;;;;;;;5.57;3.70;;;;;;;-145.06;0.00;60892.56;4854411;28;20679;-87
2022/01/11 06:53:58;;;;;;;;;;;;;;;-145.06;0.00;60892.56;4849681;28;20037;-88
2022/01/11 06:56:38;;;;;;;5.35;2.95;;;;;;;-145.06;0.00;60892.56;4850071;28;19913;-87
2022/01/11 06:59:17;;;;;;;4.20;2.90;;;;;;;-145.06;0.00;60892.56;4855269;28;20029;-87
2022/01/11 07:01:57;;;;;;;4.50;3.30;;;;;;;-145.06;0.00;60892.56;4854343;28;20038;-86
2022/01/11 07:04:37;;;;;;;5.00;3.47;;;;;;;-145.06;0.00;60892.56;4868311;28;20037;-87
2022/01/11 07:07:17;;;;;;;6.20;3.57;;;;;;;-145.06;0.00;60892.56;4868360;28;20120;-88
2022/01/11 07:09:56;;;;;;;6.13;3.63;;;;;;;-145.06;0.00;60892.56;4857466;28;20037;-87
2022/01/11 07:12:35;;;;;;;4.82;3.10;;;;;;;-145.06;0.00;60892.56;4857788;28;20458;-88
2022/01/11 07:15:14;;;;;;;5.30;2.90;;;;;;;-145.06;0.00;60892.56;4862771;28;20034;-88
2022/01/11 07:17:53;;;;;;;4.53;2.73;;;;;;;-145.06;0.00;60892.56;4859347;28;20029;-87
2022/01/11 07:20:33;;;;;;;3.80;2.57;;;;;;;-145.06;0.00;60892.56;4858391;28;20275;-87
2022/01/11 07:23:13;;;;;;;3.70;2.43;;;;;;;-145.06;0.00;60892.56;4859271;28;20280;-87
2022/01/11 07:25:52;;;;;;;4.03;2.78;;;;;;;-145.06;0.00;60892.56;4853892;28;20030;-86
2022/01/11 07:28:31;;;;;;;6.65;3.15;;;;;;;-145.06;0.00;60892.56;4852724;28;20048;-86
2022/01/11 07:31:10;;;;;;;3.38;2.40;;;;;;;-145.06;0.00;60892.56;4859165;28;20056;-87
2022/01/11 07:33:49;;;;;;;5.15;2.72;;;;;;;-145.06;0.00;60892.56;4850232;28;20527;-88
2022/01/11 07:36:28;;;;;;;5.72;3.05;;;;;;;-145.06;0.00;60892.56;4866274;28;20022;-86
2022/01/11 07:39:07;;;;;;;5.55;3.33;;;;;;;-145.06;0.00;60892.56;4853510;28;20623;-87
2022/01/11 07:41:47;;;;;;;5.68;3.22;;;;;;;-145.06;0.00;60892.56;4855576;28;20760;-88
2022/01/11 07:44:27;;;;;;;5.27;3.00;;;;;;;-145.06;0.00;60892.56;4865428;28;20045;-88
2022/01/11 07:47:06;;;;;;;6.17;3.37;;;;;;;-145.06;0.00;60892.56;4855335;28;20065;-87
2022/01/11 07:49:47;;;;;;;5.07;3.03;;;;;;;-145.06;0.00;60892.56;4858689;28;20366;-88
2022/01/11 07:52:26;;;;;;;6.17;2.87;;;;;;;-145.06;0.00;60892.56;4852000;28;20367;-86
2022/01/11 07:55:06;;;;;;;4.15;2.70;;;;;;;-145.06;0.00;60892.56;4869788;28;20032;-87
2022/01/11 07:57:45;;;;;;;6.40;3.20;;;;;;;-145.06;0.00;60892.56;4854276;28;20038;-88
2022/01/11 08:00:24;;;;;;;6.40;3.20;;;;;;;-145.06;0.00;60892.56;4862147;28;20029;-87
2022/01/11 08:03:03;;;;;;;5.95;3.33;;;;;;;-145.06;0.00;60892.56;4858079;28;20040;-86
2022/01/11 08:05:42;;;;;;;5.57;3.08;;;;;;;-145.06;0.00;60892.56;4868922;28;20025;-87
2022/01/11 08:08:21;;;;;;;6.75;3.30;;;;;;;-145.06;0.00;60892.56;4861490;28;20368;-87
2022/01/11 08:11:00;;;;;;;8.88;3.38;;;;;;;-145.06;0.00;60892.56;4865045;28;20116;-87
2022/01/11 08:13:39;;;;;;;6.40;3.47;;;;;;;-145.06;0.00;60892.56;4855890;28;20037;-87
2022/01/11 08:16:18;;;;;;;5.63;3.28;;;;;;;-145.06;0.00;60892.56;4878649;28;20028;-86
2022/01/11 08:18:57;;;;;;;5.78;3.22;;;;;;;-145.06;0.00;60892.56;4859028;28;20045;-88
2022/01/11 08:21:36;;;;;;;7.60;3.63;;;;;;;-145.06;0.00;60892.56;4855424;28;20108;-88
2022/01/11 08:24:15;;;;;;;5.88;3.25;;;;;;;-145.06;0.00;60892.56;4858075;28;20037;-87
2022/01/11 08:26:55;;;;;;;4.65;2.88;;;;;;;-145.06;0.00;60892.56;4869209;28;20029;-87
2022/01/11 08:29:34;;;;;;;4.37;2.50;;;;;;;187.52;0.00;60892.56;4851287;28;20030;-86
2022/01/11 08:32:13;;;;;;;4.45;2.47;;;;;;;-145.06;0.00;60892.56;4858723;28;20033;-87
2022/01/11 08:34:52;;;;;;;3.13;2.28;;;;;;;-145.06;0.00;60892.56;4857273;28;20049;-87
2022/01/11 08:37:31;;;;;;;5.07;2.58;;;;;;;-145.06;0.00;60892.56;4881124;28;20369;-87
2022/01/11 08:40:12;;;;;;;4.95;3.13;;;;;;;-145.06;0.00;60892.56;4852151;28;20065;-87
2022/01/11 08:42:50;;;;;;;5.13;2.85;;;;;;;-145.06;0.00;60892.56;4857868;28;20033;-87
2022/01/11 08:45:32;;;;;;;3.53;2.15;;;;;;;-145.06;0.00;60892.56;4861325;28;20064;-88
2022/01/11 08:48:11;;;;;;;3.83;2.47;;;;;;;-145.06;0.00;60892.56;4861162;28;20053;-88
2022/01/11 08:50:53;;;;;;;3.95;2.50;;;;;;;-145.06;0.00;60892.56;4868734;28;20092;-87
2022/01/11 08:53:32;;;;;;;4.17;2.53;;;;;;;-145.06;0.00;60892.56;4867973;28;20502;-87
2022/01/11 08:56:15;;;;;;;3.83;2.55;;;;;;;-145.06;0.00;60892.56;4857199;28;20372;-87
2022/01/11 08:58:54;;;;;;;4.13;2.40;;;;;;;-145.06;0.00;60892.56;4861344;28;20124;-88
2022/01/11 09:01:36;;;;;;;4.13;2.37;;;;;;;-145.06;0.00;60892.56;4872208;28;20026;-87
2022/01/11 09:04:16;;;;;;;3.97;2.30;;;;;;;-145.06;0.00;60892.56;4863768;28;20359;-87
2022/01/11 09:06:57;;;;;;;3.90;1.97;;;;;;;-145.06;0.00;60892.56;4865765;28;20033;-87
2022/01/11 09:09:36;;;;;;;2.72;2.03;;;;;;;-145.06;0.00;60892.56;4864997;28;20026;-87
2022/01/11 09:12:15;;;;;;;3.80;2.47;;;;;;;-145.06;0.00;60892.56;4865252;28;20061;-88
2022/01/11 09:14:54;;;;;;;3.38;2.28;;;;;;;-145.06;0.00;60892.56;4863069;28;20033;-87
2022/01/11 09:17:34;;;;;;;3.35;2.25;;;;;;;-145.06;0.00;60892.56;4866676;28;20068;-88
2022/01/11 09:20:14;;;;;;;2.90;1.98;;;;;;;-145.06;0.00;60892.56;4856579;28;20451;-88
2022/01/11 09:22:54;;;;;;;2.87;2.00;;;;;;;-145.06;0.00;60892.56;4857391;28;20037;-89
2022/01/11 09:25:33;;;;;;;;;;;;;;;-145.06;0.00;60892.56;4857424;28;20033;-88
2022/01/11 09:28:12;;;;;;;1.92;1.50;;;;;;;-145.06;0.00;60892.56;4853768;28;19909;-87
2022/01/11 09:30:51;;;;;;;3.38;2.10;;;;;;;-145.06;0.00;60892.56;4857364;28;20029;-87
2022/01/11 09:33:31;;;;;;;3.55;2.40;;;;;;;-145.06;0.00;60892.56;4855661;28;20033;-88
2022/01/11 09:36:10;;;;;;;3.00;2.03;;;;;;;-145.06;0.00;60892.56;4856529;28;20037;-88
2022/01/11 09:38:48;;;;;;;3.20;2.13;;;;;;;-145.06;0.00;60892.56;4856145;28;20065;-88
2022/01/11 09:41:27;;;;;;;3.40;2.30;;;;;;;-145.06;0.00;60892.56;4856703;28;20284;-89
2022/01/11 09:44:07;;;;;;;3.05;2.00;;;;;;;-145.06;0.00;60892.56;4855512;28;20627;-89
2022/01/11 09:46:46;;;;;;;;;;;;;;;0.29;0.00;60892.56;4856563;28;20033;-88
2022/01/11 09:49:25;;;;;;;2.85;1.90;;;;;;;-145.06;0.00;60892.56;4856605;28;19909;-89
2022/01/11 09:52:08;;;;;;;2.17;1.60;;;;;;;0.15;0.00;60892.56;4857913;28;20474;-88
2022/01/11 09:54:48;;;;;;;2.55;1.67;;;;;;;-145.06;0.00;60892.56;4856618;28;20029;-89
2022/01/11 09:57:27;;;;;;;2.50;1.65;;;;;;;-145.06;0.00;60892.56;4860409;28;20033;-89
2022/01/11 10:00:10;;;;;;;2.60;1.92;;;;;;;-145.06;0.00;60892.56;4857471;28;20021;-88
2022/01/11 10:02:49;;;;;;;2.65;1.85;;;;;;;-145.06;0.00;60892.56;4856044;28;20037;-88
2022/01/11 10:05:28;;;;;;;3.30;2.20;;;;;;;-145.06;0.00;60892.56;4859877;28;20045;-87
2022/01/11 10:08:24;;;;;;;4.23;2.20;;;;;;;-145.06;0.00;60892.56;4856978;28;20033;-88
2022/01/11 10:11:03;;;;;;;3.72;2.38;;;;;;;-145.06;0.00;60892.56;4855929;28;20355;-88
2022/01/11 10:13:42;;;;;;;2.53;1.97;;;;;;;-145.06;0.00;60892.56;4855092;28;20104;-88
2022/01/11 10:16:27;;;;;;;3.33;2.10;;;;;;;2.89;0.00;60892.56;4857202;28;20260;-89
2022/01/11 10:19:19;;;;;;;3.80;2.40;;;;;;;-145.06;0.00;60892.56;4848954;28;20018;-88
2022/01/11 10:22:02;;;;;;;4.47;2.17;;;;;;;-145.06;0.00;60892.56;4838013;28;20034;-87
2022/01/11 10:24:48;;;;;;;2.88;2.10;;;;;;;-145.06;0.00;60892.56;4846958;28;20057;-89
2022/01/11 10:27:30;;;;;;;3.40;2.20;;;;;;;-145.06;0.00;60892.56;4860700;28;20025;-88
2022/01/11 10:30:11;;;;;;;2.58;1.77;;;;;;;-145.06;0.00;60892.56;4860159;28;20372;-89
2022/01/11 10:32:51;;;;;;;2.33;1.70;;;;;;;-145.06;0.00;60892.56;4853272;28;20025;-88
2022/01/11 10:35:40;;;;;;;3.25;1.73;;;;;;;-145.06;0.00;60892.56;4853933;28;20033;-88
2022/01/11 10:38:30;;;;;;;3.88;1.88;;;;;;;-145.06;0.00;60892.56;4855344;28;20491;-88
2022/01/11 10:41:10;;;;;;;2.78;1.90;;;;;;;-145.06;0.00;60892.56;4853597;28;20109;-88
2022/01/11 10:43:50;;;;;;;3.55;1.98;;;;;;;2.89;0.00;60892.56;4866197;28;20104;-88
2022/01/11 10:46:43;;;;;;;2.63;1.80;;;;;;;-145.06;0.00;60892.56;4856886;28;20033;-89
2022/01/11 10:49:31;;;;;;;2.60;1.75;;;;;;;-145.06;0.00;60892.56;4855331;28;20021;-90
2022/01/11 10:52:26;;;;;;;3.28;2.30;;;;;;;1.59;0.00;60892.56;4854826;28;20380;-89
2022/01/11 10:55:07;;;;;;;2.75;1.92;;;;;;;-145.06;0.00;60892.56;4856195;28;20045;-89
2022/01/11 10:57:53;;;;;;;4.40;2.15;;;;;;;-145.06;0.00;60892.56;4855324;28;20033;-89
2022/01/11 11:00:43;;;;;;;3.28;2.42;;;;;;;-145.06;0.00;60892.56;4869752;28;20021;-88
2022/01/11 11:03:28;;;;;;;3.95;2.35;;;;;;;-145.06;0.00;60892.56;4854778;28;20025;-89
2022/01/11 11:06:11;;;;;;;4.93;2.90;;;;;;;-145.06;0.00;60892.56;4854812;28;20030;-87
2022/01/11 11:08:50;;;;;;;4.80;3.15;;;;;;;-145.06;0.00;60892.56;4865571;28;20021;-88
2022/01/11 11:11:29;;;;;;;4.40;2.63;;;;;;;-145.06;0.00;60892.56;4855011;28;20037;-88
2022/01/11 11:14:08;;;;;;;3.67;2.50;;;;;;;10.68;0.00;60892.56;4846117;28;20116;-87
2022/01/11 11:16:48;;;;;;;3.17;2.10;;;;;;;187.52;0.00;60892.56;4849468;28;20037;-88
2022/01/11 11:19:27;;;;;;;;;;;;;;;-145.06;0.00;60892.56;4846928;28;20308;-88
2022/01/11 11:22:06;;;;;;;2.17;1.67;;;;;;;-145.06;0.00;60892.56;4861348;28;19909;-87
2022/01/11 11:24:45;;;;;;;4.10;2.15;;;;;;;-145.06;0.00;60892.56;4853603;28;20033;-87
2022/01/11 11:27:26;;;;;;;2.95;2.05;;;;;;;-145.06;0.00;60892.56;4854776;28;20037;-87
2022/01/11 11:30:05;;;;;;;3.00;1.77;;;;;;;-145.06;0.00;60892.56;4854638;28;20372;-87
2022/01/11 11:32:46;;;;;;;3.63;2.10;;;;;;;-145.06;0.00;60892.56;4845030;28;20025;-87
2022/01/11 11:35:26;;;;;;;5.03;1.83;;;;;;;-145.06;0.00;60892.56;4861664;28;20057;-87
2022/01/11 11:38:09;;;;;;;2.47;1.98;;;;;;;3.90;0.00;60892.56;4854491;28;20491;-87
2022/01/11 11:40:52;;;;;;;3.33;2.40;;;;;;;-145.06;0.00;60892.56;4853697;28;20206;-87
2022/01/11 11:43:33;;;;;;;3.53;2.47;;;;;;;-145.06;0.00;60892.56;4854119;28;20030;-86
2022/01/11 11:46:12;;;;;;;4.00;2.58;;;;;;;-145.06;0.00;60892.56;4856094;28;20037;-87
2022/01/11 11:48:55;;;;;;;3.03;2.33;;;;;;;-145.06;0.00;60892.56;4860505;28;20065;-87
2022/01/11 11:51:39;;;;;;;3.15;2.33;;;;;;;-145.06;0.00;60892.56;4858690;28;20510;-87
2022/01/11 11:54:21;;;;;;;3.42;2.30;;;;;;;-145.06;0.00;60892.56;4872400;28;20030;-86
2022/01/11 11:57:01;;;;;;;4.05;2.45;;;;;;;-145.06;0.00;60892.56;4855784;28;20038;-87
2022/01/11 11:59:41;;;;;;;3.55;2.28;;;;;;;-145.06;0.00;60892.56;4857928;28;20029;-88
2022/01/11 12:02:30;;;;;;;3.33;2.42;;;;;;;-145.06;0.00;60892.56;4857661;28;20037;-87
2022/01/11 12:05:32;;;;;;;2.45;2.00;;;;;;;-145.06;0.00;60892.56;4858211;28;20041;-87
2022/01/11 12:08:37;;;;;;;4.22;2.45;;;;;;;-145.06;0.00;60892.56;4860056;28;20495;-87
2022/01/11 12:11:19;;;;;;;3.28;2.28;;;;;;;-145.06;0.00;60892.56;4870553;28;20519;-87
2022/01/11 12:13:58;;;;;;;2.95;2.13;;;;;;;-145.06;0.00;60892.56;4860062;28;20415;-87
2022/01/11 12:16:39;;;;;;;3.97;2.50;;;;;;;8.08;0.00;60892.56;4864508;28;20041;-87
2022/01/11 12:19:47;;;;;;;3.05;1.98;;;;;;;8.08;0.00;60892.56;4864981;28;20029;-87
2022/01/11 12:22:30;;;;;;;3.72;2.42;;;;;;;-145.06;0.00;60892.56;4853395;28;20037;-87
2022/01/11 12:25:27;;;;;;;4.43;2.50;;;;;;;-145.06;0.00;60892.56;4857770;28;20037;-87
2022/01/11 12:28:08;;;;;;;3.65;2.17;;;;;;;-145.06;0.00;60892.56;4857705;28;20487;-87
2022/01/11 12:30:47;;;;;;;2.60;1.92;;;;;;;-145.06;0.00;60892.56;4857925;28;20384;-88
2022/01/11 12:33:28;;;;;;;4.47;2.42;;;;;;;-145.06;0.00;60892.56;4861997;28;20591;-87
2022/01/11 12:36:07;;;;;;;3.55;2.30;;;;;;;-145.06;0.00;60892.56;4859400;28;20041;-88
2022/01/11 12:39:02;;;;;;;4.37;2.37;;;;;;;-145.06;0.00;60892.56;4863087;28;20025;-87
2022/01/11 12:41:41;;;;;;;4.35;2.75;;;;;;;-145.06;0.00;60892.56;4853397;28;20108;-88
2022/01/11 12:47:40;;;;;;;3.20;2.30;;;;;;;-145.06;0.00;60892.56;4859613;28;20038;-87